createdAt,value
2019-02-27T00:01:28.090Z,66.40
2019-02-27T00:04:02.091Z,66.30
2019-02-27T00:06:29.387Z,66.40
2019-02-27T00:09:00.537Z,66.50
2019-02-27T00:11:32.568Z,66.60
2019-02-27T00:14:02.367Z,66.40
2019-02-27T00:16:33.395Z,66.50
2019-02-27T00:19:03.367Z,66.50
2019-02-27T00:21:33.150Z,66.30
2019-02-27T00:24:03.020Z,66.20
2019-02-27T00:26:32.808Z,66.30
2019-02-27T00:29:02.608Z,66.40
2019-02-27T00:31:33.368Z,66.50
2019-02-27T00:34:03.143Z,66.50
2019-02-27T00:36:32.948Z,66.70
2019-02-27T00:39:02.749Z,66.70
2019-02-27T00:41:34.160Z,66.90
2019-02-27T00:44:03.927Z,68.20
2019-02-27T00:46:33.710Z,68.60
2019-02-27T00:49:03.475Z,68.60
2019-02-27T00:51:34.250Z,68.60
2019-02-27T00:54:04.114Z,68.70
2019-02-27T00:56:33.892Z,68.70
2019-02-27T00:59:03.655Z,68.70
2019-02-27T01:01:33.435Z,68.70
2019-02-27T01:04:03.374Z,68.80
2019-02-27T01:06:33.247Z,68.60
2019-02-27T01:09:03.880Z,68.60
2019-02-27T01:11:36.258Z,68.60
2019-02-27T01:14:06.208Z,68.70
2019-02-27T01:16:35.994Z,68.80
2019-02-27T01:19:05.769Z,69.00
2019-02-27T01:21:35.544Z,69.00
2019-02-27T01:24:05.398Z,68.90
2019-02-27T01:26:36.259Z,68.80
2019-02-27T01:29:06.026Z,68.80
2019-02-27T01:31:35.811Z,68.90
2019-02-27T01:34:05.661Z,69.00
2019-02-27T01:36:35.457Z,68.90
2019-02-27T01:39:08.918Z,68.70
2019-02-27T01:41:39.195Z,68.60
2019-02-27T01:44:11.180Z,68.70
2019-02-27T01:46:40.463Z,68.50
2019-02-27T01:49:11.339Z,68.30
2019-02-27T01:51:41.105Z,68.10
2019-02-27T01:54:12.267Z,68.10
2019-02-27T01:56:42.359Z,68.10
2019-02-27T01:59:14.056Z,68.20
2019-02-27T02:01:44.697Z,68.20
2019-02-27T02:04:20.006Z,68.10
2019-02-27T02:06:47.043Z,67.90
2019-02-27T02:09:33.469Z,68.00
2019-02-27T02:12:10.071Z,68.10
2019-02-27T02:14:45.855Z,68.20
2019-02-27T02:17:52.166Z,68.20
2019-02-27T02:20:44.535Z,68.30
2019-02-27T02:23:17.396Z,68.60
2019-02-27T02:26:22.056Z,68.90
2019-02-27T02:29:00.440Z,69.00
2019-02-27T02:31:43.021Z,69.20
2019-02-27T02:34:30.368Z,69.40
2019-02-27T02:37:19.761Z,69.30
2019-02-27T02:39:55.512Z,69.60
2019-02-27T02:42:33.907Z,69.70
2019-02-27T02:45:21.147Z,69.70
2019-02-27T02:47:56.927Z,69.90
2019-02-27T02:50:41.996Z,69.60
2019-02-27T02:53:25.398Z,69.50
2019-02-27T02:55:58.955Z,69.50
2019-02-27T02:58:52.971Z,69.10
2019-02-27T03:01:31.808Z,68.50
2019-02-27T03:04:13.655Z,68.70
2019-02-27T03:06:58.341Z,68.60
2019-02-27T03:09:47.929Z,68.50
2019-02-27T03:12:30.945Z,68.30
2019-02-27T03:15:30.177Z,68.20
2019-02-27T03:18:12.151Z,68.10
2019-02-27T03:20:52.399Z,68.00
2019-02-27T03:23:32.448Z,67.90
2019-02-27T03:26:17.788Z,67.70
2019-02-27T03:29:05.709Z,67.30
2019-02-27T03:31:57.480Z,67.20
2019-02-27T03:34:47.017Z,67.10
2019-02-27T03:37:22.853Z,67.10
2019-02-27T03:40:17.142Z,67.20
2019-02-27T03:43:10.411Z,67.60
2019-02-27T03:45:48.131Z,66.70
2019-02-27T03:48:32.803Z,66.30
2019-02-27T03:51:08.394Z,65.40
2019-02-27T03:53:47.206Z,65.10
2019-02-27T03:56:53.109Z,65.00
2019-02-27T03:59:42.458Z,64.70
2019-02-27T04:02:21.024Z,65.00
2019-02-27T04:05:19.961Z,64.90
2019-02-27T04:08:08.267Z,65.10
2019-02-27T04:10:36.293Z,65.20
2019-02-27T04:13:06.086Z,64.90
2019-02-27T04:15:36.147Z,64.70
2019-02-27T04:18:04.873Z,64.50
2019-02-27T04:20:34.663Z,64.30
2019-02-27T04:23:04.460Z,64.00
2019-02-27T04:25:34.251Z,63.90
2019-02-27T04:28:04.028Z,63.80
2019-02-27T04:30:33.794Z,63.90
2019-02-27T04:33:03.564Z,63.70
2019-02-27T04:35:34.315Z,63.40
2019-02-27T04:38:04.375Z,63.50
2019-02-27T04:40:34.158Z,63.40
2019-02-27T04:43:03.941Z,63.00
2019-02-27T04:45:33.708Z,62.70
2019-02-27T04:48:03.487Z,62.80
2019-02-27T04:50:33.266Z,62.40
2019-02-27T04:53:03.038Z,62.30
2019-02-27T04:55:32.821Z,61.90
2019-02-27T04:58:02.601Z,62.00
2019-02-27T05:00:32.380Z,61.80
2019-02-27T05:03:02.148Z,62.10
2019-02-27T05:05:31.939Z,61.80
2019-02-27T05:08:01.707Z,61.80
2019-02-27T05:10:31.503Z,61.40
2019-02-27T05:13:01.266Z,61.00
2019-02-27T05:15:32.214Z,61.10
2019-02-27T05:18:01.987Z,61.40
2019-02-27T05:20:32.676Z,61.00
2019-02-27T05:23:02.453Z,61.10
2019-02-27T05:25:32.240Z,61.20
2019-02-27T05:28:02.087Z,60.80
2019-02-27T05:30:31.979Z,60.70
2019-02-27T05:33:02.788Z,61.40
2019-02-27T05:35:32.813Z,60.80
2019-02-27T05:38:02.656Z,60.70
2019-02-27T05:40:32.432Z,60.20
2019-02-27T05:43:02.207Z,60.20
2019-02-27T05:45:32.004Z,60.40
2019-02-27T05:48:01.793Z,60.10
2019-02-27T05:50:34.037Z,60.20
2019-02-27T05:53:03.048Z,60.00
2019-02-27T05:55:32.823Z,60.00
2019-02-27T05:58:02.608Z,59.80
2019-02-27T06:00:34.014Z,60.20
2019-02-27T06:03:03.803Z,60.60
2019-02-27T06:05:33.681Z,59.80
2019-02-27T06:08:05.063Z,60.10
2019-02-27T06:10:34.851Z,60.10
2019-02-27T06:13:04.638Z,60.10
2019-02-27T06:15:34.437Z,59.80
2019-02-27T06:18:04.199Z,59.80
2019-02-27T06:20:33.979Z,59.70
2019-02-27T06:23:04.413Z,59.80
2019-02-27T06:25:34.919Z,59.50
2019-02-27T06:28:04.693Z,59.50
2019-02-27T06:30:34.483Z,58.90
2019-02-27T06:33:04.255Z,59.10
2019-02-27T06:35:34.365Z,59.20
2019-02-27T06:38:05.158Z,58.50
2019-02-27T06:40:34.955Z,58.40
2019-02-27T06:43:04.791Z,57.50
2019-02-27T06:45:34.593Z,57.20
2019-02-27T06:48:09.489Z,56.50
2019-02-27T06:50:36.035Z,57.10
2019-02-27T06:53:05.815Z,56.60
2019-02-27T06:55:35.600Z,56.90
2019-02-27T06:58:05.382Z,56.90
2019-02-27T07:00:36.765Z,56.40
2019-02-27T07:03:06.616Z,56.70
2019-02-27T07:05:36.408Z,56.60
2019-02-27T07:08:06.193Z,56.70
2019-02-27T07:10:35.993Z,56.40
2019-02-27T07:13:05.837Z,56.00
2019-02-27T07:15:35.623Z,56.00
2019-02-27T07:18:06.216Z,56.30
2019-02-27T07:20:37.715Z,56.10
2019-02-27T07:23:07.563Z,55.70
2019-02-27T07:25:41.983Z,55.80
2019-02-27T07:28:09.266Z,55.40
2019-02-27T07:30:39.751Z,55.40
2019-02-27T07:33:10.683Z,55.50
2019-02-27T07:35:40.455Z,54.90
2019-02-27T07:38:10.248Z,54.80
2019-02-27T07:40:42.738Z,54.90
2019-02-27T07:43:11.517Z,55.30
2019-02-27T07:45:42.696Z,55.20
2019-02-27T07:48:12.806Z,54.80
2019-02-27T07:50:42.581Z,54.50
2019-02-27T07:53:12.372Z,55.10
2019-02-27T07:55:42.141Z,55.10
2019-02-27T07:58:12.998Z,54.80
2019-02-27T08:00:42.919Z,55.10
2019-02-27T08:03:13.135Z,54.80
2019-02-27T08:05:43.004Z,55.10
2019-02-27T08:08:12.791Z,55.30
2019-02-27T08:10:42.567Z,55.50
2019-02-27T08:13:12.351Z,54.60
2019-02-27T08:15:42.128Z,54.30
2019-02-27T08:18:11.995Z,54.10
2019-02-27T08:20:41.871Z,53.90
2019-02-27T08:23:11.652Z,53.80
2019-02-27T08:25:41.439Z,53.60
2019-02-27T08:28:11.227Z,52.20
2019-02-27T08:30:41.007Z,52.00
2019-02-27T08:33:10.811Z,51.50
2019-02-27T08:35:40.660Z,51.50
2019-02-27T08:38:10.475Z,51.10
2019-02-27T08:40:40.255Z,51.10
2019-02-27T08:43:10.923Z,51.20
2019-02-27T08:45:40.912Z,50.90
2019-02-27T08:48:10.695Z,50.90
2019-02-27T08:50:40.491Z,50.60
2019-02-27T08:53:10.271Z,50.40
2019-02-27T08:55:40.082Z,50.10
2019-02-27T08:58:09.868Z,50.10
2019-02-27T09:00:40.183Z,50.50
2019-02-27T09:03:19.798Z,50.10
2019-02-27T09:05:41.799Z,50.10
2019-02-27T09:08:11.587Z,49.80
2019-02-27T09:10:41.383Z,49.30
2019-02-27T09:13:11.177Z,49.50
2019-02-27T09:15:42.043Z,49.10
2019-02-27T09:18:11.816Z,49.00
2019-02-27T09:20:41.613Z,48.90
2019-02-27T09:23:11.396Z,49.40
2019-02-27T09:25:42.322Z,49.40
2019-02-27T09:28:12.268Z,48.30
2019-02-27T09:30:42.131Z,48.00
2019-02-27T09:33:11.989Z,47.50
2019-02-27T09:35:41.859Z,47.50
2019-02-27T09:38:11.654Z,47.00
2019-02-27T09:40:41.519Z,46.30
2019-02-27T09:43:11.719Z,46.10
2019-02-27T09:45:46.339Z,46.50
2019-02-27T09:48:14.314Z,45.50
2019-02-27T09:50:48.913Z,44.80
2019-02-27T09:53:18.887Z,44.20
2019-02-27T09:55:53.422Z,44.50
2019-02-27T09:58:20.229Z,44.30
2019-02-27T10:01:02.888Z,43.90
2019-02-27T10:03:32.858Z,44.80
2019-02-27T10:06:02.858Z,44.00
2019-02-27T10:08:32.649Z,44.30
2019-02-27T10:11:04.340Z,44.10
2019-02-27T10:13:37.519Z,43.50
2019-02-27T10:16:05.623Z,44.00
2019-02-27T10:18:35.409Z,43.00
2019-02-27T10:21:05.208Z,43.70
2019-02-27T10:23:34.994Z,43.30
2019-02-27T10:26:04.798Z,42.90
2019-02-27T10:28:38.889Z,42.80
2019-02-27T10:31:06.102Z,42.90
2019-02-27T10:33:35.885Z,42.40
2019-02-27T10:36:05.696Z,42.60
2019-02-27T10:38:40.285Z,42.50
2019-02-27T10:41:06.979Z,42.60
2019-02-27T10:43:36.767Z,41.80
2019-02-27T10:46:06.647Z,42.10
2019-02-27T10:48:36.912Z,41.70
2019-02-27T10:51:09.559Z,40.70
2019-02-27T10:53:38.309Z,41.30
2019-02-27T10:56:08.079Z,41.40
2019-02-27T10:58:37.884Z,41.60
2019-02-27T11:01:07.731Z,41.30
2019-02-27T11:03:37.603Z,41.50
2019-02-27T11:06:07.383Z,41.10
2019-02-27T11:08:37.191Z,40.70
2019-02-27T11:11:08.657Z,40.70
2019-02-27T11:13:38.691Z,41.40
2019-02-27T11:16:08.479Z,40.70
2019-02-27T11:18:38.284Z,40.10
2019-02-27T11:21:08.938Z,39.70
2019-02-27T11:23:40.904Z,39.70
2019-02-27T11:26:10.224Z,39.90
2019-02-27T11:28:40.032Z,39.90
2019-02-27T11:31:11.071Z,39.50
2019-02-27T11:33:41.655Z,39.30
2019-02-27T11:36:11.452Z,40.00
2019-02-27T11:38:41.258Z,39.80
2019-02-27T11:41:14.957Z,40.30
2019-02-27T11:43:42.549Z,39.90
2019-02-27T11:46:12.351Z,39.80
2019-02-27T11:48:42.139Z,39.30
2019-02-27T11:51:13.891Z,38.60
2019-02-27T11:53:43.422Z,38.70
2019-02-27T11:56:13.211Z,38.70
2019-02-27T11:58:42.995Z,38.70
2019-02-27T12:01:12.793Z,38.60
2019-02-27T12:03:45.701Z,38.70
2019-02-27T12:06:15.146Z,38.60
2019-02-27T12:08:44.922Z,38.40
2019-02-27T12:11:14.708Z,38.50
2019-02-27T12:13:44.502Z,39.30
2019-02-27T12:16:15.268Z,38.70
2019-02-27T12:18:45.851Z,38.40
2019-02-27T12:21:15.647Z,38.00
2019-02-27T12:23:45.432Z,38.20
2019-02-27T12:26:15.235Z,37.50
2019-02-27T12:28:45.012Z,37.80
2019-02-27T12:31:14.806Z,38.50
2019-02-27T12:33:44.596Z,37.40
2019-02-27T12:36:16.105Z,37.70
2019-02-27T12:38:46.953Z,37.60
2019-02-27T12:41:16.768Z,38.70
2019-02-27T12:43:52.175Z,38.70
2019-02-27T12:46:18.042Z,38.40
2019-02-27T12:48:47.830Z,36.90
2019-02-27T12:51:17.628Z,36.50
2019-02-27T12:53:47.428Z,36.10
2019-02-27T12:56:17.213Z,36.50
2019-02-27T12:58:47.006Z,36.50
2019-02-27T13:01:17.010Z,35.10
2019-02-27T13:03:46.964Z,35.40
2019-02-27T13:06:16.822Z,36.00
2019-02-27T13:08:46.620Z,36.10
2019-02-27T13:11:16.397Z,36.50
2019-02-27T13:13:46.251Z,35.60
2019-02-27T13:16:16.038Z,34.90
2019-02-27T13:18:46.543Z,34.60
2019-02-27T13:21:20.486Z,34.90
2019-02-27T13:23:48.745Z,36.30
2019-02-27T13:26:18.609Z,35.80
2019-02-27T13:28:48.767Z,34.50
2019-02-27T13:31:19.482Z,34.40
2019-02-27T13:33:50.334Z,33.80
2019-02-27T13:36:20.113Z,34.20
2019-02-27T13:38:52.179Z,34.10
2019-02-27T13:41:21.383Z,34.20
2019-02-27T13:43:51.275Z,35.00
2019-02-27T13:46:22.728Z,34.60
2019-02-27T13:48:52.747Z,33.50
2019-02-27T13:51:22.535Z,34.10
2019-02-27T13:53:52.342Z,32.80
2019-02-27T13:56:22.133Z,32.30
2019-02-27T13:58:51.944Z,32.50
2019-02-27T14:01:21.871Z,31.60
2019-02-27T14:03:51.673Z,30.30
2019-02-27T14:06:21.449Z,29.90
2019-02-27T14:08:51.243Z,30.00
2019-02-27T14:11:21.171Z,30.30
2019-02-27T14:13:52.017Z,30.20
2019-02-27T14:16:22.264Z,29.90
2019-02-27T14:18:54.053Z,29.10
2019-02-27T14:21:23.663Z,28.70
2019-02-27T14:23:53.480Z,28.90
2019-02-27T14:26:23.339Z,28.70
2019-02-27T14:28:55.168Z,27.80
2019-02-27T14:31:24.775Z,27.50
2019-02-27T14:33:55.040Z,28.00
2019-02-27T14:36:24.935Z,28.40
2019-02-27T14:38:56.653Z,28.90
2019-02-27T14:41:26.203Z,29.70
2019-02-27T14:43:57.675Z,29.50
2019-02-27T14:46:27.487Z,29.50
2019-02-27T14:48:57.287Z,30.00
2019-02-27T14:51:27.068Z,29.90
2019-02-27T14:53:56.870Z,30.00
2019-02-27T14:56:26.641Z,29.90
2019-02-27T14:58:56.712Z,30.50
2019-02-27T15:01:27.380Z,30.70
2019-02-27T15:04:00.350Z,30.80
2019-02-27T15:06:28.656Z,30.60
2019-02-27T15:09:02.309Z,31.10
2019-02-27T15:11:31.128Z,30.70
2019-02-27T15:14:01.026Z,31.50
2019-02-27T15:16:30.820Z,31.10
2019-02-27T15:19:00.676Z,31.10
2019-02-27T15:21:31.837Z,30.80
2019-02-27T15:24:02.157Z,29.70
2019-02-27T15:26:33.049Z,30.00
2019-02-27T15:29:03.091Z,30.00
2019-02-27T15:31:34.314Z,29.80
2019-02-27T15:34:04.168Z,30.20
2019-02-27T15:36:33.956Z,31.00
2019-02-27T15:39:04.851Z,30.00
2019-02-27T15:41:36.243Z,31.50
2019-02-27T15:44:07.087Z,32.10
2019-02-27T15:46:36.885Z,31.50
2019-02-27T15:49:06.895Z,31.50
2019-02-27T15:51:36.680Z,31.20
2019-02-27T15:54:06.469Z,31.20
2019-02-27T15:56:36.256Z,31.10
2019-02-27T15:59:08.216Z,31.70
2019-02-27T16:01:37.559Z,32.70
2019-02-27T16:04:07.347Z,31.80
2019-02-27T16:06:39.460Z,33.20
2019-02-27T16:09:10.108Z,32.60
2019-02-27T16:11:41.115Z,32.50
2019-02-27T16:14:10.917Z,32.20
2019-02-27T16:16:41.767Z,32.10
2019-02-27T16:19:11.652Z,32.50
2019-02-27T16:21:41.411Z,32.20
2019-02-27T16:24:11.212Z,32.60
2019-02-27T16:26:40.998Z,33.00
2019-02-27T16:29:10.789Z,33.30
2019-02-27T16:31:40.861Z,32.40
2019-02-27T16:34:11.450Z,32.90
2019-02-27T16:36:41.316Z,32.80
2019-02-27T16:39:11.393Z,33.00
2019-02-27T16:41:41.176Z,33.00
2019-02-27T16:44:11.224Z,32.60
2019-02-27T16:46:44.548Z,32.80
2019-02-27T16:49:12.556Z,32.00
2019-02-27T16:51:42.328Z,32.20
2019-02-27T16:54:12.153Z,32.90
2019-02-27T16:56:46.271Z,33.00
2019-02-27T16:59:13.435Z,33.50
2019-02-27T17:01:43.206Z,33.40
2019-02-27T17:04:13.008Z,33.60
2019-02-27T17:06:42.859Z,34.20
2019-02-27T17:09:13.351Z,33.40
2019-02-27T17:11:43.388Z,33.90
2019-02-27T17:14:13.184Z,34.60
2019-02-27T17:16:44.874Z,34.90
2019-02-27T17:19:14.551Z,35.80
2019-02-27T17:21:44.335Z,35.70
2019-02-27T17:24:14.137Z,37.00
2019-02-27T17:26:43.921Z,36.70
2019-02-27T17:29:13.898Z,36.20
2019-02-27T17:31:49.234Z,36.50
2019-02-27T17:34:15.292Z,36.30
2019-02-27T17:36:45.148Z,36.50
2019-02-27T17:39:14.970Z,38.00
2019-02-27T17:41:45.368Z,38.40
2019-02-27T17:44:16.314Z,38.90
2019-02-27T17:46:46.113Z,39.00
2019-02-27T17:49:15.909Z,39.30
2019-02-27T17:51:45.703Z,39.60
2019-02-27T17:54:15.501Z,40.40
2019-02-27T17:56:47.176Z,39.90
2019-02-27T17:59:16.804Z,40.10
2019-02-27T18:01:47.099Z,40.40
2019-02-27T18:04:16.987Z,40.50
2019-02-27T18:06:46.803Z,40.70
2019-02-27T18:09:16.606Z,41.20
2019-02-27T18:11:46.409Z,41.50
2019-02-27T18:14:16.200Z,41.70
2019-02-27T18:16:46.008Z,42.00
2019-02-27T18:19:17.268Z,42.20
2019-02-27T18:21:47.176Z,42.50
2019-02-27T18:24:16.958Z,42.60
2019-02-27T18:26:50.057Z,42.80
2019-02-27T18:29:18.268Z,43.20
2019-02-27T18:31:48.065Z,43.50
2019-02-27T18:34:17.856Z,43.60
2019-02-27T18:36:47.663Z,43.90
2019-02-27T18:39:17.459Z,44.10
2019-02-27T18:41:47.276Z,44.40
2019-02-27T18:44:17.069Z,44.40
2019-02-27T18:46:46.901Z,44.50
2019-02-27T18:49:18.528Z,44.50
2019-02-27T18:51:48.212Z,44.90
2019-02-27T18:54:21.712Z,44.70
2019-02-27T18:56:49.709Z,45.00
2019-02-27T18:59:19.572Z,45.20
2019-02-27T19:01:49.381Z,44.90
2019-02-27T19:04:19.325Z,45.20
2019-02-27T19:06:49.102Z,46.20
2019-02-27T19:09:18.996Z,45.40
2019-02-27T19:11:50.859Z,45.50
2019-02-27T19:14:20.439Z,45.60
2019-02-27T19:16:52.123Z,45.80
2019-02-27T19:19:21.826Z,46.00
2019-02-27T19:21:51.684Z,46.30
2019-02-27T19:24:26.726Z,46.80
2019-02-27T19:26:53.127Z,46.90
2019-02-27T19:29:22.923Z,47.00
2019-02-27T19:31:52.796Z,47.10
2019-02-27T19:34:22.591Z,47.10
2019-02-27T19:36:52.396Z,47.10
2019-02-27T19:39:22.587Z,47.50
2019-02-27T19:41:52.435Z,47.80
2019-02-27T19:44:22.251Z,48.20
2019-02-27T19:46:52.038Z,48.60
2019-02-27T19:49:21.844Z,48.60
2019-02-27T19:51:54.590Z,48.90
2019-02-27T19:54:23.228Z,48.20
2019-02-27T19:56:55.063Z,48.40
2019-02-27T19:59:25.577Z,48.60
2019-02-27T20:01:55.640Z,48.60
2019-02-27T20:04:25.484Z,48.60
2019-02-27T20:06:55.412Z,48.90
2019-02-27T20:09:25.287Z,48.90
2019-02-27T20:11:55.154Z,48.90
2019-02-27T20:14:25.040Z,48.40
2019-02-27T20:16:55.911Z,48.50
2019-02-27T20:19:28.982Z,48.50
2019-02-27T20:21:58.602Z,48.60
2019-02-27T20:24:28.548Z,49.60
2019-02-27T20:26:58.350Z,49.20
2019-02-27T20:29:28.136Z,49.40
2019-02-27T20:31:57.957Z,49.40
2019-02-27T20:34:28.812Z,49.80
2019-02-27T20:36:58.684Z,49.90
2019-02-27T20:39:28.751Z,51.10
2019-02-27T20:41:58.548Z,51.40
2019-02-27T20:44:28.330Z,51.90
2019-02-27T20:46:58.144Z,51.40
2019-02-27T20:49:27.941Z,51.10
2019-02-27T20:51:57.771Z,51.30
2019-02-27T20:54:27.591Z,51.70
2019-02-27T20:56:57.429Z,51.50
2019-02-27T20:59:27.255Z,51.70
2019-02-27T21:01:57.035Z,51.70
2019-02-27T21:04:27.903Z,52.30
2019-02-27T21:06:57.709Z,52.50
2019-02-27T21:09:27.581Z,52.70
2019-02-27T21:11:57.373Z,52.70
2019-02-27T21:14:27.458Z,52.70
2019-02-27T21:16:57.353Z,52.90
2019-02-27T21:19:27.161Z,53.80
2019-02-27T21:21:57.025Z,53.10
2019-02-27T21:24:26.896Z,53.40
2019-02-27T21:26:57.279Z,53.40
2019-02-27T21:29:27.769Z,53.50
2019-02-27T21:31:58.298Z,53.70
2019-02-27T21:34:29.084Z,53.80
2019-02-27T21:36:58.885Z,53.70
2019-02-27T21:39:28.683Z,53.80
2019-02-27T21:41:58.519Z,54.20
2019-02-27T21:44:29.193Z,54.30
2019-02-27T21:46:59.638Z,54.30
2019-02-27T21:49:32.286Z,54.70
2019-02-27T21:52:00.947Z,54.80
2019-02-27T21:54:30.830Z,54.90
2019-02-27T21:57:00.626Z,55.00
2019-02-27T21:59:30.433Z,55.00
2019-02-27T22:02:00.246Z,55.20
2019-02-27T22:04:30.051Z,55.20
2019-02-27T22:06:59.861Z,55.50
2019-02-27T22:09:29.659Z,55.60
2019-02-27T22:12:01.118Z,55.60
2019-02-27T22:14:31.016Z,55.60
2019-02-27T22:17:01.557Z,55.70
2019-02-27T22:19:33.691Z,55.90
2019-02-27T22:22:05.331Z,56.10
2019-02-27T22:24:34.976Z,56.10
2019-02-27T22:27:04.783Z,56.50
2019-02-27T22:29:34.577Z,56.20
2019-02-27T22:32:04.456Z,56.30
2019-02-27T22:34:34.248Z,56.50
2019-02-27T22:37:04.060Z,56.50
2019-02-27T22:39:33.851Z,56.70
2019-02-27T22:42:03.662Z,57.00
2019-02-27T22:44:33.536Z,56.90
2019-02-27T22:47:03.407Z,57.20
2019-02-27T22:49:33.212Z,57.90
2019-02-27T22:52:03.007Z,57.40
2019-02-27T22:54:33.216Z,57.50
2019-02-27T22:57:04.309Z,57.60
2019-02-27T22:59:37.419Z,57.50
2019-02-27T23:02:05.928Z,57.70
2019-02-27T23:04:35.958Z,57.90
2019-02-27T23:07:05.808Z,58.20
2019-02-27T23:09:36.887Z,58.20
2019-02-27T23:12:08.562Z,58.40
2019-02-27T23:14:38.757Z,58.20
2019-02-27T23:17:08.560Z,58.60
2019-02-27T23:19:38.342Z,58.70
2019-02-27T23:22:10.105Z,58.70
2019-02-27T23:24:43.422Z,59.50
2019-02-27T23:27:11.386Z,59.10
2019-02-27T23:29:41.200Z,59.40
2019-02-27T23:32:11.168Z,59.50
2019-02-27T23:34:41.689Z,59.80
2019-02-27T23:37:12.308Z,59.90
2019-02-27T23:39:42.771Z,60.30
2019-02-27T23:42:13.457Z,60.40
2019-02-27T23:44:43.340Z,60.50
2019-02-27T23:47:13.144Z,60.50
2019-02-27T23:49:42.937Z,60.40
2019-02-27T23:52:12.742Z,60.60
2019-02-27T23:54:42.528Z,60.60
2019-02-27T23:57:12.340Z,60.70
2019-02-27T23:59:42.130Z,60.60
